Galatia, Kansas
Current Conditions -  °F | °C
As of 12:15 AM on Sunday 26 Oct 2014 (Local Time) from KGBD Reporting Station
Clear Clear  
Wind Chill: 19°   Ceiling: Unl
Heat Index: 19°   Visibility: 10mi
Dew Point: 12°   Wind: 13mph
Humidity: 64%   Direction: 190°S
Pressure: 29.91"   Gusts: NA
Location:  38.523°N, 99.0878°W
Report Text: KGBD 260515Z AUTO 19011KT 10SM CLR 19/12 A2991 RMK AO1
Loading
Personal Weather Stations






























Interactive Weather Map
Tropical Storm Tracking
New forecast layout! Learn more

10-Day Weather Forecast

Advertisements
Track Severe Weather on mobile